createdAt,value
2023-03-17T00:00:32.812Z,1333.00
2023-03-17T03:44:39.279Z,506.00
2023-03-17T03:48:39.486Z,506.00
2023-03-17T03:52:39.712Z,503.00
2023-03-17T03:56:39.876Z,508.00
2023-03-17T04:00:40.086Z,506.00
2023-03-17T04:04:40.315Z,502.00
2023-03-17T04:08:40.539Z,508.00
2023-03-17T04:12:40.745Z,504.00
2023-03-17T04:16:43.280Z,504.00
2023-03-17T04:20:40.668Z,504.00
2023-03-17T04:24:40.650Z,503.00
2023-03-17T04:28:40.582Z,507.00
2023-03-17T04:32:40.664Z,506.00
2023-03-17T04:36:40.520Z,503.00
2023-03-17T04:40:40.497Z,503.00
2023-03-17T04:44:40.538Z,501.00
2023-03-17T04:48:40.710Z,502.00
2023-03-17T04:52:40.928Z,504.00
2023-03-17T04:56:40.908Z,505.00
2023-03-17T05:00:40.916Z,503.00
2023-03-17T05:04:40.807Z,505.00
2023-03-17T05:08:40.762Z,504.00
2023-03-17T05:12:40.766Z,504.00
2023-03-17T05:16:40.746Z,509.00
2023-03-17T05:20:40.809Z,506.00
2023-03-17T05:24:40.764Z,505.00
2023-03-17T05:28:40.772Z,504.00
2023-03-17T05:32:40.739Z,500.00
2023-03-17T05:36:40.678Z,502.00
2023-03-17T05:40:40.621Z,508.00
2023-03-17T05:44:40.606Z,508.00
2023-03-17T05:48:40.683Z,503.00
2023-03-17T05:52:40.825Z,503.00
2023-03-17T05:56:40.786Z,504.00
2023-03-17T07:52:43.109Z,892.00
2023-03-17T13:16:47.697Z,1669.00
2023-03-17T13:32:48.240Z,1654.00
2023-03-17T13:36:48.150Z,1655.00
2023-03-17T13:40:48.711Z,1660.00
2023-03-17T13:44:48.557Z,1653.00
2023-03-17T13:48:49.207Z,1627.00
2023-03-17T13:52:49.220Z,1633.00
2023-03-17T13:56:49.274Z,1632.00
2023-03-17T14:00:49.831Z,1639.00
2023-03-17T14:04:49.537Z,1626.00
2023-03-17T14:08:49.749Z,1613.00
2023-03-17T14:12:51.381Z,1618.00
2023-03-17T14:16:50.516Z,1611.00
2023-03-17T14:20:50.724Z,1555.00
2023-03-17T14:24:51.746Z,1614.00
2023-03-17T14:28:50.736Z,475.00
2023-03-17T14:32:51.001Z,884.00
2023-03-17T14:36:51.275Z,880.00
2023-03-17T14:40:50.825Z,829.00
2023-03-17T14:44:50.787Z,842.00
2023-03-17T14:48:50.799Z,840.00
2023-03-17T14:52:50.738Z,922.00
2023-03-17T14:56:50.708Z,1008.00
2023-03-17T15:00:50.638Z,1058.00
2023-03-17T15:04:50.765Z,1146.00
2023-03-17T15:08:50.585Z,1207.00
2023-03-17T15:12:50.742Z,1277.00
2023-03-17T15:16:50.867Z,1372.00
2023-03-17T15:20:50.769Z,1418.00
2023-03-17T15:24:51.248Z,1471.00
2023-03-17T15:28:51.244Z,1501.00
2023-03-17T15:32:51.315Z,1518.00
2023-03-17T15:36:51.291Z,1521.00
2023-03-17T15:40:50.882Z,1588.00
2023-03-17T15:44:51.254Z,1570.00
2023-03-17T15:48:50.975Z,597.00
2023-03-17T15:52:51.199Z,501.00
2023-03-17T15:56:51.218Z,504.00
2023-03-17T16:00:51.766Z,505.00
2023-03-17T16:04:51.576Z,495.00
2023-03-17T16:08:51.560Z,501.00
2023-03-17T16:12:51.511Z,701.00
2023-03-17T16:16:51.762Z,1148.00
2023-03-17T16:20:51.421Z,1272.00
2023-03-17T19:16:54.498Z,2875.00
2023-03-17T19:20:54.672Z,2832.00
2023-03-17T19:24:54.862Z,2819.00
2023-03-17T19:28:55.064Z,2796.00
2023-03-17T19:44:55.919Z,2697.00
2023-03-17T19:48:55.875Z,2690.00
2023-03-17T19:52:55.868Z,2662.00
2023-03-17T19:56:56.326Z,2635.00
2023-03-17T20:00:55.777Z,2601.00
2023-03-17T20:04:55.821Z,2587.00
2023-03-17T20:08:55.714Z,2589.00
2023-03-17T20:12:55.868Z,2578.00
2023-03-17T20:16:55.735Z,2550.00
2023-03-17T20:20:55.702Z,2538.00
2023-03-17T20:24:55.684Z,2519.00
2023-03-17T20:28:55.631Z,2497.00
2023-03-17T20:32:55.690Z,2472.00
2023-03-17T20:36:55.553Z,2457.00
2023-03-17T20:40:55.623Z,2435.00
2023-03-17T20:44:55.824Z,2403.00
2023-03-17T20:48:56.029Z,2370.00
2023-03-17T20:52:55.999Z,2341.00
2023-03-17T20:56:55.993Z,2314.00
2023-03-17T21:00:55.917Z,2285.00
2023-03-17T21:04:55.884Z,2254.00
2023-03-17T21:08:55.846Z,2239.00
2023-03-17T21:12:55.837Z,2236.00
2023-03-17T21:16:55.979Z,2205.00
2023-03-17T21:20:55.950Z,2186.00
2023-03-17T21:24:55.921Z,2181.00
2023-03-17T21:28:55.899Z,2150.00
2023-03-17T21:32:55.893Z,2133.00
2023-03-17T21:36:56.004Z,2089.00
2023-03-17T21:40:55.994Z,2067.00
2023-03-17T21:44:55.973Z,2050.00
2023-03-17T21:48:55.897Z,2006.00
2023-03-17T21:56:55.817Z,1931.00
2023-03-17T22:00:55.882Z,1925.00
2023-03-17T22:04:56.000Z,1897.00
2023-03-17T22:08:55.970Z,1864.00
2023-03-17T22:12:55.928Z,1872.00
2023-03-17T22:16:55.982Z,1844.00
2023-03-17T22:20:55.870Z,1832.00
2023-03-17T22:24:55.823Z,1818.00
2023-03-17T22:28:55.822Z,1761.00
2023-03-17T22:32:56.048Z,1746.00
2023-03-17T22:36:55.881Z,1729.00
2023-03-17T22:40:55.843Z,1691.00
2023-03-17T22:44:55.802Z,1669.00
2023-03-17T22:48:55.816Z,1658.00
2023-03-17T22:52:55.735Z,1634.00
2023-03-17T22:56:55.694Z,1631.00
2023-03-17T23:00:55.920Z,1603.00
2023-03-17T23:04:56.090Z,1583.00
2023-03-17T23:08:56.285Z,1559.00
2023-03-17T23:12:56.410Z,1549.00
2023-03-17T23:16:56.642Z,1515.00
2023-03-17T23:20:56.780Z,1506.00
2023-03-17T23:24:56.908Z,1486.00
2023-03-17T23:28:57.051Z,1490.00
2023-03-17T23:32:57.250Z,1422.00
2023-03-17T23:36:57.359Z,1403.00
2023-03-17T23:40:57.513Z,1415.00
2023-03-17T23:44:57.690Z,1447.00
2023-03-17T23:48:57.874Z,1436.00
2023-03-17T23:52:58.118Z,1441.00
2023-03-17T23:56:58.087Z,1474.00
